Time;durP1;ratioP1;P1;durP2;ratioP2;P2;SDS_P1;SDS_P2;PMS_P1;PMS_P2;Temp;Humidity;BMP_temperature;BMP_pressure;BME280_temperature;BME280_humidity;BME280_pressure;Samples;Min_cycle;Max_cycle;Signal;HPM_P1;HPM_P2
2021/11/04 00:02:19;;;;;;;13.63;12.27;;;;;;;5.45;100.00;96508.03;4994334;28;20212;-74
2021/11/04 00:04:47;;;;;;;13.30;12.00;;;;;;;5.45;100.00;96497.53;4982854;28;20359;-74
2021/11/04 00:07:17;;;;;;;16.77;12.30;;;;;;;5.48;100.00;96494.56;4993291;28;20395;-75
2021/11/04 00:09:45;;;;;;;14.40;13.07;;;;;;;5.46;100.00;96501.78;4983904;28;20229;-74
2021/11/04 00:12:14;;;;;;;13.83;12.43;;;;;;;5.45;100.00;96486.22;4980735;28;20216;-76
2021/11/04 00:14:42;;;;;;;11.97;10.77;;;;;;;5.44;100.00;96481.94;4964899;28;20212;-74
2021/11/04 00:17:10;;;;;;;13.90;12.60;;;;;;;5.54;100.00;96468.63;4981285;28;20430;-75
2021/11/04 00:19:38;;;;;;;15.10;12.20;;;;;;;5.55;100.00;96465.78;4981035;28;22497;-73
2021/11/04 00:22:06;;;;;;;13.57;12.27;;;;;;;5.52;100.00;96460.09;4989191;28;20224;-76
2021/11/04 00:24:34;;;;;;;14.50;13.00;;;;;;;5.50;100.00;96457.59;4995356;28;20596;-76
2021/11/04 00:27:03;;;;;;;14.17;12.87;;;;;;;5.64;100.00;96443.75;4975666;28;20839;-75
2021/11/04 00:29:32;;;;;;;14.47;13.00;;;;;;;5.73;100.00;96428.75;4966694;28;20232;-76
2021/11/04 00:32:01;;;;;;;12.90;11.60;;;;;;;5.57;100.00;96406.00;4990119;28;20808;-75
2021/11/04 00:34:29;;;;;;;15.07;12.47;;;;;;;5.65;100.00;96403.34;4985798;28;20212;-76
2021/11/04 00:36:57;;;;;;;14.53;12.57;;;;;;;5.58;100.00;96399.75;4985565;28;20206;-76
2021/11/04 00:39:26;;;;;;;14.40;13.00;;;;;;;5.70;100.00;96410.72;4992447;28;20236;-76
2021/11/04 00:41:54;;;;;;;13.70;12.37;;;;;;;5.69;100.00;96411.69;4976471;28;20865;-74
2021/11/04 00:44:22;;;;;;;13.87;12.53;;;;;;;5.60;100.00;96426.69;4992498;28;20570;-75
2021/11/04 00:46:51;;;;;;;13.70;12.23;;;;;;;5.53;100.00;96435.44;4957213;28;20248;-74
2021/11/04 00:49:19;;;;;;;14.43;12.97;;;;;;;5.75;100.00;96421.53;4983727;28;20232;-73
2021/11/04 00:51:47;;;;;;;13.73;12.43;;;;;;;5.61;100.00;96417.00;4976404;28;20718;-74
2021/11/04 00:54:15;;;;;;;13.30;12.10;;;;;;;5.55;100.00;96417.69;4987539;28;20208;-76
2021/11/04 00:56:43;;;;;;;14.27;12.77;;;;;;;5.65;100.00;96415.66;4980478;28;20632;-75
2021/11/04 00:59:11;;;;;;;13.40;12.00;;;;;;;5.55;100.00;96405.34;4982133;28;20617;-76
2021/11/04 01:01:40;;;;;;;14.20;12.83;;;;;;;5.61;100.00;96395.97;4964396;28;20224;-76
2021/11/04 01:04:09;;;;;;;13.80;12.50;;;;;;;5.62;100.00;96380.03;4938947;28;20248;-73
2021/11/04 01:06:37;;;;;;;14.60;13.27;;;;;;;5.60;100.00;96389.09;4987335;28;20221;-75
2021/11/04 01:09:05;;;;;;;14.93;13.33;;;;;;;5.58;100.00;96391.88;4985698;28;20675;-74
2021/11/04 01:11:33;;;;;;;14.50;12.50;;;;;;;5.45;100.00;96402.13;4984845;28;20303;-75
2021/11/04 01:14:02;;;;;;;14.37;12.87;;;;;;;5.46;100.00;96415.06;4988164;28;20549;-76
2021/11/04 01:16:30;;;;;;;14.03;12.70;;;;;;;5.44;100.00;96422.31;4984419;28;20216;-76
2021/11/04 01:18:58;;;;;;;14.87;13.33;;;;;;;5.44;100.00;96432.81;4956496;28;20449;-74
2021/11/04 01:21:27;;;;;;;13.20;12.00;;;;;;;5.44;100.00;96440.69;4989136;28;20212;-77
2021/11/04 01:23:55;;;;;;;13.87;12.20;;;;;;;5.45;100.00;96426.56;4985154;28;20209;-76
2021/11/04 01:26:23;;;;;;;13.00;11.77;;;;;;;5.38;100.00;96420.38;4974290;28;20236;-74
2021/11/04 01:28:51;;;;;;;13.57;12.20;;;;;;;5.38;100.00;96412.50;4989271;28;20446;-74
2021/11/04 01:31:19;;;;;;;12.93;11.63;;;;;;;5.35;100.00;96404.94;4990724;28;20204;-75
2021/11/04 01:33:48;;;;;;;13.30;11.90;;;;;;;5.34;100.00;96405.94;4960766;28;20208;-74
2021/11/04 01:36:16;;;;;;;14.50;12.83;;;;;;;5.30;100.00;96405.47;4988061;28;20287;-75
2021/11/04 01:38:45;;;;;;;14.50;12.93;;;;;;;5.31;100.00;96408.91;4978442;28;20653;-73
2021/11/04 01:41:14;;;;;;;12.47;11.07;;;;;;;5.31;100.00;96409.75;4977909;28;20221;-76
2021/11/04 01:43:43;;;;;;;13.30;12.07;;;;;;;5.31;100.00;96411.53;4987640;28;20554;-74
2021/11/04 01:46:11;;;;;;;13.77;12.47;;;;;;;5.32;100.00;96407.91;4985902;28;20201;-75
2021/11/04 01:48:40;;;;;;;14.73;13.33;;;;;;;5.33;100.00;96405.13;4990561;28;20220;-74
2021/11/04 01:51:08;;;;;;;14.80;13.30;;;;;;;5.28;100.00;96406.63;4954894;28;20912;-76
2021/11/04 01:53:36;;;;;;;14.90;13.40;;;;;;;5.28;100.00;96399.53;4986689;28;20213;-74
2021/11/04 01:56:06;;;;;;;14.20;12.70;;;;;;;5.28;100.00;96404.81;4972864;28;22640;-75
2021/11/04 01:58:35;;;;;;;12.73;11.47;;;;;;;5.28;100.00;96396.91;4988336;28;20244;-74
2021/11/04 02:01:03;;;;;;;14.93;13.37;;;;;;;5.33;100.00;96399.06;4983125;28;20232;-75
2021/11/04 02:03:45;;;;;;;14.83;13.33;;;;;;;5.33;100.00;96392.00;4985006;28;20232;-74
2021/11/04 02:06:19;;;;;;;12.47;11.37;;;;;;;5.34;100.00;96382.28;4957232;28;20206;-76
2021/11/04 02:08:53;;;;;;;13.93;12.63;;;;;;;5.35;100.00;96386.56;4979539;28;20216;-74
2021/11/04 02:11:25;;;;;;;13.53;12.23;;;;;;;5.56;100.00;96380.72;4982836;28;20213;-76
2021/11/04 02:13:58;;;;;;;14.43;12.93;;;;;;;5.50;100.00;96381.41;4973025;28;20213;-75
2021/11/04 02:16:28;;;;;;;16.93;13.90;;;;;;;5.43;100.00;96380.47;4989855;28;20221;-76
2021/11/04 02:18:58;;;;;;;16.40;14.70;;;;;;;5.44;100.00;96374.22;4992142;28;20232;-76
2021/11/04 02:21:34;;;;;;;15.00;13.20;;;;;;;5.43;100.00;96365.50;4967776;28;20449;-75
2021/11/04 02:24:09;;;;;;;14.67;12.97;;;;;;;5.37;100.00;96368.81;4983827;28;20525;-75
2021/11/04 02:26:39;;;;;;;15.03;13.43;;;;;;;5.35;100.00;96368.19;4988253;28;20212;-74
2021/11/04 02:29:07;;;;;;;16.83;14.17;;;;;;;5.40;100.00;96371.09;4989800;28;20457;-75
2021/11/04 02:31:36;;;;;;;16.47;14.77;;;;;;;5.40;100.00;96365.03;4990736;28;20209;-74
2021/11/04 02:34:04;;;;;;;16.00;13.27;;;;;;;5.42;100.00;96374.38;4990025;28;20237;-75
2021/11/04 02:36:33;;;;;;;15.00;13.50;;;;;;;5.37;100.00;96379.31;4941980;28;20236;-74
2021/11/04 02:39:01;;;;;;;16.87;14.90;;;;;;;5.37;100.00;96376.69;4987037;28;20688;-76
2021/11/04 02:41:31;;;;;;;14.73;13.23;;;;;;;5.36;100.00;96382.94;4994253;28;20213;-74
2021/11/04 02:44:01;;;;;;;14.30;12.87;;;;;;;5.34;100.00;96384.94;4987472;28;20217;-76
2021/11/04 02:46:30;;;;;;;14.80;13.30;;;;;;;5.34;100.00;96380.50;4987938;28;20205;-74
2021/11/04 02:48:58;;;;;;;14.60;13.10;;;;;;;5.35;100.00;96376.88;4989984;28;20625;-76
2021/11/04 02:51:26;;;;;;;14.60;13.20;;;;;;;5.39;100.00;96366.03;4989741;28;20202;-74
2021/11/04 02:53:54;;;;;;;15.63;13.93;;;;;;;5.39;100.00;96369.47;4964067;28;20589;-75
2021/11/04 02:56:22;;;;;;;15.50;13.87;;;;;;;5.36;100.00;96370.66;4985098;28;20900;-76
2021/11/04 02:58:49;;;;;;;14.67;13.17;;;;;;;5.31;100.00;96374.75;4978436;28;20205;-76
2021/11/04 03:01:19;;;;;;;15.50;13.90;;;;;;;5.28;100.00;96369.84;4992218;28;20205;-76
2021/11/04 03:03:47;;;;;;;17.40;13.23;;;;;;;5.29;100.00;96371.50;4985222;28;20296;-77
2021/11/04 03:06:15;;;;;;;17.37;13.33;;;;;;;5.35;100.00;96374.25;4997197;28;20204;-75
2021/11/04 03:08:43;;;;;;;15.60;13.90;;;;;;;5.31;100.00;96380.00;4995959;28;20517;-75
2021/11/04 03:11:11;;;;;;;16.30;14.70;;;;;;;5.33;100.00;96378.03;4960681;28;20217;-73
2021/11/04 03:13:39;;;;;;;15.17;13.63;;;;;;;5.27;100.00;96376.91;4975504;28;20389;-76
2021/11/04 03:16:09;;;;;;;17.47;15.37;;;;;;;5.26;100.00;96379.72;4983303;28;20206;-74
2021/11/04 03:18:40;;;;;;;19.47;16.20;;;;;;;5.26;100.00;96382.34;4976847;28;20817;-74
2021/11/04 03:21:08;;;;;;;19.10;15.43;;;;;;;5.19;100.00;96380.41;4994748;28;20220;-73
2021/11/04 03:23:36;;;;;;;17.53;15.67;;;;;;;5.19;100.00;96376.94;4990371;28;20378;-75
2021/11/04 03:26:05;;;;;;;19.73;17.23;;;;;;;5.36;100.00;96373.28;4964225;28;20344;-73
2021/11/04 03:28:33;;;;;;;20.17;16.93;;;;;;;5.30;100.00;96373.97;4979052;28;20742;-75
2021/11/04 03:31:02;;;;;;;21.27;16.07;;;;;;;5.28;100.00;96367.22;4992277;28;20255;-76
2021/11/04 03:33:30;;;;;;;17.83;16.10;;;;;;;5.38;100.00;96370.47;4978231;28;20213;-75
2021/11/04 03:36:00;;;;;;;21.40;17.20;;;;;;;5.47;100.00;96358.09;4976101;28;20217;-71
2021/11/04 03:38:28;;;;;;;21.70;17.00;;;;;;;5.36;100.00;96354.88;4991676;28;20212;-73
2021/11/04 03:40:57;;;;;;;19.77;17.13;;;;;;;5.32;100.00;96350.13;4938676;28;20406;-75
2021/11/04 03:43:26;;;;;;;18.80;16.80;;;;;;;5.47;100.00;96347.59;4988000;28;20209;-71
2021/11/04 03:45:54;;;;;;;20.30;16.07;;;;;;;5.40;100.00;96344.84;4994354;28;20455;-73
2021/11/04 03:48:24;;;;;;;18.77;16.73;;;;;;;5.44;100.00;96343.50;4966533;28;20247;-71
2021/11/04 03:50:53;;;;;;;18.30;16.50;;;;;;;5.58;100.00;96328.00;4993798;28;20221;-74
2021/11/04 03:53:22;;;;;;;18.77;16.80;;;;;;;5.63;100.00;96325.66;4986505;28;20211;-72
2021/11/04 03:55:50;;;;;;;20.27;16.60;;;;;;;5.78;100.00;96313.41;4964402;28;20737;-74
2021/11/04 03:58:19;;;;;;;22.23;16.53;;;;;;;5.67;100.00;96310.34;4989573;28;20209;-72
2021/11/04 04:00:47;;;;;;;19.43;16.00;;;;;;;5.44;100.00;96316.41;4987393;28;20231;-73
2021/11/04 04:03:15;;;;;;;18.37;15.93;;;;;;;5.50;100.00;96320.97;4975045;28;20299;-72
2021/11/04 04:05:43;;;;;;;18.90;16.90;;;;;;;5.46;100.00;96314.44;4981513;28;20237;-73
2021/11/04 04:08:11;;;;;;;20.03;16.67;;;;;;;5.42;100.00;96313.94;4989055;28;20225;-72
2021/11/04 04:10:40;;;;;;;19.03;16.13;;;;;;;5.34;100.00;96320.09;4958872;28;20976;-75
2021/11/04 04:13:08;;;;;;;18.20;16.20;;;;;;;5.34;100.00;96325.34;4986547;28;20209;-75
2021/11/04 04:15:36;;;;;;;20.43;16.07;;;;;;;5.42;100.00;96313.94;4983862;28;20217;-74
2021/11/04 04:18:04;;;;;;;18.10;16.20;;;;;;;5.41;100.00;96307.06;4972231;28;20230;-74
2021/11/04 04:20:32;;;;;;;17.70;15.50;;;;;;;5.42;100.00;96310.53;4977866;28;20308;-73
2021/11/04 04:23:00;;;;;;;18.57;16.07;;;;;;;5.49;100.00;96304.41;4990333;28;20209;-73
2021/11/04 04:25:30;;;;;;;21.53;16.17;;;;;;;5.50;100.00;96299.97;4983091;28;20212;-73
2021/11/04 04:27:59;;;;;;;18.70;16.00;;;;;;;5.39;100.00;96300.34;4956284;28;20843;-75
2021/11/04 04:30:28;;;;;;;20.27;16.17;;;;;;;5.36;100.00;96323.34;4987605;28;20229;-72
2021/11/04 04:32:56;;;;;;;19.70;17.60;;;;;;;5.43;100.00;96320.03;4971842;28;20210;-74
2021/11/04 04:35:24;;;;;;;19.97;16.57;;;;;;;5.37;100.00;96324.16;4985303;28;20204;-71
2021/11/04 04:37:52;;;;;;;18.00;16.03;;;;;;;5.30;100.00;96320.59;4977536;28;20209;-74
2021/11/04 04:40:20;;;;;;;18.53;15.90;;;;;;;5.35;100.00;96308.59;4989175;28;20252;-71
2021/11/04 04:42:49;;;;;;;19.23;15.73;;;;;;;5.39;100.00;96305.63;4958019;28;21000;-74
2021/11/04 04:45:18;;;;;;;20.27;16.37;;;;;;;5.25;100.00;96304.53;4982788;28;20687;-71
2021/11/04 04:47:46;;;;;;;19.50;16.70;;;;;;;5.36;100.00;96310.22;4983724;28;20208;-73
2021/11/04 04:50:14;;;;;;;18.47;15.10;;;;;;;5.39;100.00;96318.75;4974453;28;20771;-71
2021/11/04 04:52:42;;;;;;;16.67;14.57;;;;;;;5.33;100.00;96336.00;4976172;28;20319;-73
2021/11/04 04:55:10;;;;;;;17.70;15.53;;;;;;;5.20;100.00;96353.13;4987144;28;20209;-71
2021/11/04 04:57:38;;;;;;;17.80;15.23;;;;;;;5.18;100.00;96351.66;4987252;28;21268;-73
2021/11/04 05:00:11;;;;;;;18.10;15.53;;;;;;;5.15;100.00;96347.59;4961754;28;20246;-75
2021/11/04 05:02:43;;;;;;;18.30;16.23;;;;;;;5.20;100.00;96368.06;4980884;28;20854;-72
2021/11/04 05:05:12;;;;;;;16.33;14.67;;;;;;;5.16;100.00;96380.75;4973721;28;20396;-71
2021/11/04 05:07:40;;;;;;;19.00;14.67;;;;;;;5.27;100.00;96383.97;4986211;28;20446;-77
2021/11/04 05:10:09;;;;;;;16.93;15.07;;;;;;;5.20;100.00;96373.31;4991013;28;20641;-74
2021/11/04 05:12:37;;;;;;;21.17;16.63;;;;;;;5.21;100.00;96382.84;4984432;28;20366;-77
2021/11/04 05:15:06;;;;;;;17.23;14.50;;;;;;;5.21;100.00;96390.72;4960836;28;20244;-76
2021/11/04 05:17:37;;;;;;;33.10;28.83;;;;;;;5.22;100.00;96394.97;4954581;28;20703;-74
2021/11/04 05:20:08;;;;;;;19.40;17.27;;;;;;;5.19;100.00;96403.19;4992203;28;20220;-75
2021/11/04 05:22:37;;;;;;;15.17;13.57;;;;;;;5.14;100.00;96402.88;4979488;28;20581;-74
2021/11/04 05:25:06;;;;;;;14.60;13.07;;;;;;;5.18;100.00;96407.66;4986581;28;20200;-77
2021/11/04 05:27:34;;;;;;;16.60;14.63;;;;;;;5.15;100.00;96407.16;4977674;28;20443;-75
2021/11/04 05:30:02;;;;;;;48.70;38.07;;;;;;;5.19;100.00;96393.53;4977178;28;20426;-76
2021/11/04 05:32:30;;;;;;;26.27;21.03;;;;;;;5.18;100.00;96402.41;4952131;28;20446;-76
2021/11/04 05:34:58;;;;;;;17.53;15.03;;;;;;;5.18;100.00;96407.66;4982108;28;20205;-77
2021/11/04 05:37:27;;;;;;;18.60;15.43;;;;;;;5.22;100.00;96431.75;4984579;28;20210;-74
2021/11/04 05:39:55;;;;;;;20.13;15.80;;;;;;;5.21;100.00;96436.19;4990516;28;20278;-74
2021/11/04 05:42:23;;;;;;;16.13;14.30;;;;;;;5.15;100.00;96430.78;4982390;28;20205;-77
2021/11/04 05:44:51;;;;;;;18.23;14.77;;;;;;;5.16;100.00;96430.63;4978137;28;20241;-79
2021/11/04 05:47:19;;;;;;;18.90;15.13;;;;;;;5.16;100.00;96440.31;4983699;28;20247;-77
2021/11/04 05:49:47;;;;;;;20.77;16.00;;;;;;;5.15;100.00;96433.41;4945353;28;20255;-77
2021/11/04 05:52:16;;;;;;;17.90;15.63;;;;;;;5.17;100.00;96431.44;4988877;28;20703;-77
2021/11/04 05:54:45;;;;;;;18.67;15.73;;;;;;;5.16;100.00;96435.06;4989617;28;20201;-79
2021/11/04 05:57:13;;;;;;;20.40;14.80;;;;;;;5.18;100.00;96427.81;4988810;28;20205;-77
2021/11/04 05:59:41;;;;;;;17.80;15.90;;;;;;;5.21;100.00;96438.81;4987530;28;20221;-80
2021/11/04 06:02:09;;;;;;;17.77;15.30;;;;;;;5.17;100.00;96448.03;4993694;28;20218;-77
2021/11/04 06:04:43;;;;;;;14.70;13.17;;;;;;;5.19;100.00;96469.69;4975714;28;20235;-81
2021/11/04 06:07:12;;;;;;;15.53;12.73;;;;;;;5.19;100.00;96455.72;4990870;28;20208;-78
2021/11/04 06:09:40;;;;;;;17.47;13.80;;;;;;;5.15;100.00;96449.16;4989101;28;20309;-78
2021/11/04 06:12:10;;;;;;;18.50;14.63;;;;;;;5.13;100.00;96433.59;4982874;28;20205;-74
2021/11/04 06:14:39;;;;;;;31.33;27.83;;;;;;;5.15;100.00;96433.41;4979965;28;21594;-78
2021/11/04 06:17:07;;;;;;;51.80;45.73;;;;;;;5.19;100.00;96437.34;4983662;28;20205;-74
2021/11/04 06:19:35;;;;;;;42.17;37.13;;;;;;;5.18;100.00;96448.84;4988731;28;20457;-77
2021/11/04 06:22:03;;;;;;;17.83;15.37;;;;;;;5.13;100.00;96441.47;4957488;28;20225;-75
2021/11/04 06:24:32;;;;;;;21.50;19.23;;;;;;;5.24;100.00;96432.41;4991748;28;20228;-77
2021/11/04 06:27:00;;;;;;;18.43;15.13;;;;;;;5.16;100.00;96435.88;4987551;28;20216;-76
2021/11/04 06:29:30;;;;;;;19.10;15.13;;;;;;;5.24;100.00;96439.47;4977968;28;20421;-77
2021/11/04 06:31:58;;;;;;;22.80;17.13;;;;;;;5.19;100.00;96445.22;4991076;28;20202;-77
2021/11/04 06:34:26;;;;;;;23.20;16.27;;;;;;;5.28;100.00;96441.56;4988849;28;20921;-78
2021/11/04 06:36:54;;;;;;;21.77;15.40;;;;;;;5.21;100.00;96438.81;4963789;28;20224;-78
2021/11/04 06:39:22;;;;;;;128.63;59.80;;;;;;;5.16;100.00;96433.25;4987201;28;20357;-77
2021/11/04 06:41:51;;;;;;;26.80;15.90;;;;;;;5.30;100.00;96430.91;4993062;28;20217;-78
2021/11/04 06:44:19;;;;;;;35.53;21.53;;;;;;;5.21;100.00;96448.50;4976603;28;20214;-75
2021/11/04 06:46:50;;;;;;;17.63;13.00;;;;;;;5.18;100.00;96462.78;4988564;28;20251;-78
2021/11/04 06:49:19;;;;;;;13.00;10.87;;;;;;;5.26;100.00;96476.91;4983582;28;20234;-75
2021/11/04 06:51:49;;;;;;;13.77;11.20;;;;;;;5.20;100.00;96486.25;4955757;28;20209;-78
2021/11/04 06:54:18;;;;;;;15.17;11.37;;;;;;;5.19;100.00;96501.19;4984701;28;20516;-75
2021/11/04 06:56:48;;;;;;;16.40;11.60;;;;;;;5.20;100.00;96496.75;4982509;28;20209;-78
2021/11/04 06:59:21;;;;;;;11.80;9.87;;;;;;;5.16;100.00;96491.03;4984203;28;20236;-74
2021/11/04 07:01:55;;;;;;;10.80;9.10;;;;;;;5.19;100.00;96495.94;4983773;28;20233;-77
2021/11/04 07:04:30;;;;;;;14.87;11.63;;;;;;;5.23;100.00;96504.31;4981845;28;20308;-77
2021/11/04 07:07:08;;;;;;;13.33;10.10;;;;;;;5.17;100.00;96510.22;4960762;28;20512;-78
2021/11/04 07:09:38;;;;;;;12.63;9.80;;;;;;;5.19;100.00;96508.25;4987860;28;20773;-79
2021/11/04 07:12:09;;;;;;;10.50;9.40;;;;;;;5.20;100.00;96518.59;4991273;28;20251;-75
2021/11/04 07:14:41;;;;;;;11.00;9.90;;;;;;;5.16;100.00;96527.81;4993394;28;20334;-80
2021/11/04 07:17:12;;;;;;;12.77;9.80;;;;;;;5.15;100.00;96515.66;4985376;28;20454;-76
2021/11/04 07:19:42;;;;;;;10.27;8.87;;;;;;;5.19;100.00;96519.59;4991240;28;20232;-78
2021/11/04 07:22:22;;;;;;;11.20;9.13;;;;;;;5.22;100.00;96532.38;4978275;28;20204;-75
2021/11/04 07:24:59;;;;;;;11.47;10.30;;;;;;;5.21;100.00;96529.91;4966015;28;20608;-80
2021/11/04 07:27:33;;;;;;;9.80;8.73;;;;;;;5.12;100.00;96523.88;4999554;28;20212;-75
2021/11/04 07:30:04;;;;;;;11.60;8.80;;;;;;;5.20;100.00;96523.84;4991273;28;20233;-78
2021/11/04 07:32:33;;;;;;;16.57;11.17;;;;;;;5.18;100.00;96523.19;4991627;28;20218;-75
2021/11/04 07:35:03;;;;;;;13.90;10.30;;;;;;;5.20;100.00;96528.28;4985608;28;20592;-78
2021/11/04 07:37:33;;;;;;;7.87;7.17;;;;;;;5.07;100.00;96523.53;4997432;28;20673;-75
2021/11/04 07:40:01;;;;;;;6.37;5.83;;;;;;;5.04;100.00;96526.47;4965006;28;20325;-78
2021/11/04 07:42:29;;;;;;;9.40;7.73;;;;;;;5.02;100.00;96526.66;4989305;28;20204;-76
2021/11/04 07:44:57;;;;;;;5.53;5.00;;;;;;;4.97;100.00;96528.13;4989831;28;20911;-79
2021/11/04 07:47:26;;;;;;;5.17;4.77;;;;;;;4.89;100.00;96535.03;5006255;28;20393;-77
2021/11/04 07:49:55;;;;;;;8.03;6.50;;;;;;;4.89;100.00;96539.44;4995565;28;20335;-80
2021/11/04 07:52:23;;;;;;;5.07;4.60;;;;;;;4.80;100.00;96541.25;4993126;28;20209;-80
2021/11/04 07:54:51;;;;;;;6.50;5.87;;;;;;;4.77;100.00;96546.84;4975807;28;20232;-80
2021/11/04 07:57:19;;;;;;;4.80;4.37;;;;;;;4.69;100.00;96549.44;4991263;28;20849;-77
2021/11/04 07:59:47;;;;;;;3.73;3.43;;;;;;;4.63;100.00;96564.03;5003943;28;20252;-80
2021/11/04 08:02:15;;;;;;;3.87;3.57;;;;;;;4.62;100.00;96565.84;4995216;28;20213;-75
2021/11/04 08:04:43;;;;;;;5.10;4.37;;;;;;;4.60;100.00;96570.41;4998753;28;20205;-75
2021/11/04 08:07:12;;;;;;;16.67;9.93;;;;;;;4.51;100.00;96568.78;4991595;28;20220;-75
2021/11/04 08:09:42;;;;;;;7.03;5.53;;;;;;;4.56;100.00;96571.72;4989800;28;20221;-78
2021/11/04 08:12:10;;;;;;;6.67;4.37;;;;;;;4.45;100.00;96585.97;4967606;28;20217;-75
2021/11/04 08:14:39;;;;;;;3.50;3.20;;;;;;;4.48;100.00;96582.22;4996374;28;20685;-78
2021/11/04 08:17:07;;;;;;;2.40;2.30;;;;;;;4.42;100.00;96593.34;4992130;28;20220;-75
2021/11/04 08:19:35;;;;;;;4.03;3.23;;;;;;;4.40;100.00;96597.94;4993033;28;20225;-78
2021/11/04 08:22:03;;;;;;;2.00;1.90;;;;;;;4.33;100.00;96598.53;4981131;28;20212;-75
2021/11/04 08:24:32;;;;;;;4.00;3.70;;;;;;;4.34;100.00;96604.63;5000204;28;20212;-81
2021/11/04 08:27:00;;;;;;;2.83;2.63;;;;;;;4.35;100.00;96601.03;4973978;28;20520;-77
2021/11/04 08:29:28;;;;;;;3.67;3.37;;;;;;;4.32;100.00;96609.22;4990433;28;20225;-81
2021/11/04 08:31:56;;;;;;;2.47;2.37;;;;;;;4.30;100.00;96611.19;4995531;28;20236;-77
2021/11/04 08:34:24;;;;;;;3.23;3.10;;;;;;;4.29;100.00;96604.28;4998254;28;20322;-81
2021/11/04 08:36:52;;;;;;;2.87;2.67;;;;;;;4.29;100.00;96609.53;4995009;28;20221;-77
2021/11/04 08:39:20;;;;;;;3.33;3.13;;;;;;;4.27;100.00;96620.16;4992371;28;20232;-77
2021/11/04 08:41:56;;;;;;;4.37;4.07;;;;;;;4.27;100.00;96619.34;5002122;28;20673;-81
2021/11/04 08:44:24;;;;;;;3.67;3.47;;;;;;;4.22;100.00;96617.19;4984247;28;20260;-79
2021/11/04 08:46:52;;;;;;;3.53;3.33;;;;;;;4.28;100.00;96621.81;5004648;28;20213;-77
2021/11/04 08:49:20;;;;;;;4.03;3.73;;;;;;;4.34;100.00;96628.22;5007489;28;20217;-78
2021/11/04 08:51:50;;;;;;;4.37;4.13;;;;;;;4.28;100.00;96636.75;4994922;28;20243;-79
2021/11/04 08:54:18;;;;;;;4.07;3.87;;;;;;;4.27;100.00;96638.53;4995293;28;20820;-80
2021/11/04 08:56:46;;;;;;;4.37;4.07;;;;;;;4.15;100.00;96651.09;4995069;28;20212;-80
2021/11/04 08:59:16;;;;;;;4.20;3.90;;;;;;;4.10;100.00;96645.50;4965500;28;20267;-80
2021/11/04 09:01:45;;;;;;;4.10;3.83;;;;;;;4.08;100.00;96655.31;5001477;28;20202;-80
2021/11/04 09:04:15;;;;;;;3.50;3.30;;;;;;;4.02;100.00;96654.16;5000340;28;20205;-78
2021/11/04 09:06:43;;;;;;;5.33;4.93;;;;;;;4.04;100.00;96660.06;4996231;28;20209;-79
2021/11/04 09:09:12;;;;;;;4.70;4.40;;;;;;;4.04;100.00;96652.19;4991390;28;20683;-77
2021/11/04 09:11:40;;;;;;;4.20;3.90;;;;;;;4.11;100.00;96662.06;4997928;28;20225;-79
2021/11/04 09:14:11;;;;;;;4.63;4.33;;;;;;;4.05;100.00;96663.50;4957609;28;20279;-77
2021/11/04 09:16:41;;;;;;;4.83;4.53;;;;;;;4.02;100.00;96661.19;4993897;28;20273;-78
2021/11/04 09:19:09;;;;;;;4.17;3.97;;;;;;;3.99;100.00;96670.19;4987297;28;20229;-75
2021/11/04 09:21:37;;;;;;;3.67;3.47;;;;;;;3.99;100.00;96677.22;4995023;28;20213;-78
2021/11/04 09:24:06;;;;;;;4.93;4.60;;;;;;;4.11;100.00;96680.41;4992231;28;20669;-75
2021/11/04 09:26:35;;;;;;;4.33;4.03;;;;;;;4.12;100.00;96690.72;4993607;28;20220;-79
2021/11/04 09:29:04;;;;;;;5.10;4.60;;;;;;;4.24;100.00;96693.91;4971362;28;20229;-75
2021/11/04 09:31:35;;;;;;;4.70;4.40;;;;;;;4.16;100.00;96701.75;4949443;28;20471;-79
2021/11/04 09:34:05;;;;;;;4.37;4.07;;;;;;;4.22;100.00;96697.69;4995872;28;20209;-78
2021/11/04 09:36:33;;;;;;;4.67;4.37;;;;;;;4.21;100.00;96704.72;4986147;28;20504;-79
2021/11/04 09:39:02;;;;;;;4.67;4.37;;;;;;;4.31;100.00;96710.66;4991725;28;20371;-79
2021/11/04 09:41:32;;;;;;;4.80;4.50;;;;;;;4.32;100.00;96712.31;4990587;28;20918;-79
2021/11/04 09:44:02;;;;;;;5.10;4.80;;;;;;;4.36;100.00;96720.69;4996867;28;20205;-79
2021/11/04 09:46:31;;;;;;;4.40;4.20;;;;;;;4.40;100.00;96721.22;4964907;28;22540;-79
2021/11/04 09:48:59;;;;;;;5.27;4.87;;;;;;;4.41;100.00;96728.13;4988644;28;20216;-79
2021/11/04 09:51:28;;;;;;;4.97;4.60;;;;;;;4.32;100.00;96730.66;4989527;28;20233;-75
2021/11/04 09:53:56;;;;;;;5.13;4.83;;;;;;;4.42;100.00;96727.94;4986361;28;20733;-78
2021/11/04 09:56:24;;;;;;;5.17;4.77;;;;;;;4.34;100.00;96741.81;4991932;28;20625;-75
2021/11/04 09:58:52;;;;;;;5.07;4.70;;;;;;;4.33;100.00;96737.56;4985512;28;20202;-77
2021/11/04 10:01:23;;;;;;;4.63;4.30;;;;;;;4.55;100.00;96743.25;4993675;28;20447;-75
2021/11/04 10:03:52;;;;;;;5.23;4.93;;;;;;;4.45;100.00;96737.31;4957734;28;20578;-78
2021/11/04 10:06:21;;;;;;;5.67;5.23;;;;;;;4.55;100.00;96738.00;4990898;28;20215;-75
2021/11/04 10:08:53;;;;;;;5.87;5.37;;;;;;;4.54;100.00;96736.38;4979752;28;20205;-78
2021/11/04 10:11:22;;;;;;;5.70;5.17;;;;;;;4.52;100.00;96747.97;4988147;28;20229;-75
2021/11/04 10:13:50;;;;;;;6.97;4.87;;;;;;;4.49;100.00;96742.06;4995139;28;20201;-78
2021/11/04 10:16:26;;;;;;;5.47;5.07;;;;;;;4.68;100.00;96745.44;4987920;28;20209;-75
2021/11/04 10:18:57;;;;;;;4.80;4.50;;;;;;;4.80;100.00;96751.25;4962086;28;20687;-78
2021/11/04 10:21:41;;;;;;;4.80;4.50;;;;;;;4.84;100.00;96763.06;4988565;28;20476;-78
2021/11/04 10:24:17;;;;;;;5.67;5.23;;;;;;;4.81;100.00;96762.56;4985731;28;20209;-77
2021/11/04 10:26:45;;;;;;;5.83;5.43;;;;;;;4.77;100.00;96764.69;4992186;28;20201;-78
2021/11/04 10:29:14;;;;;;;4.80;4.50;;;;;;;4.65;100.00;96779.88;4998005;28;20257;-75
2021/11/04 10:31:46;;;;;;;4.37;4.17;;;;;;;4.66;100.00;96768.41;4993655;28;20236;-78
2021/11/04 10:34:26;;;;;;;4.37;4.13;;;;;;;4.60;100.00;96777.72;4965396;28;20221;-75
2021/11/04 10:36:54;;;;;;;5.00;4.70;;;;;;;4.70;100.00;96780.22;4997589;28;20209;-78
2021/11/04 10:39:27;;;;;;;4.60;4.30;;;;;;;4.80;100.00;96789.78;4994241;28;20635;-75
2021/11/04 10:41:56;;;;;;;4.53;4.23;;;;;;;4.86;100.00;96791.78;5004191;28;20208;-78
2021/11/04 10:44:24;;;;;;;4.20;4.00;;;;;;;4.69;100.00;96786.47;5001104;28;20205;-75
2021/11/04 10:46:57;;;;;;;4.80;4.50;;;;;;;4.86;100.00;96786.53;5007888;28;21188;-78
2021/11/04 10:49:26;;;;;;;4.77;4.47;;;;;;;4.74;100.00;96799.94;4976344;28;20228;-75
2021/11/04 10:51:57;;;;;;;5.17;4.87;;;;;;;4.77;100.00;96799.63;4989213;28;20237;-79
2021/11/04 10:54:27;;;;;;;4.67;4.37;;;;;;;4.72;100.00;96803.69;4996784;28;20692;-75
2021/11/04 10:56:55;;;;;;;4.63;4.37;;;;;;;4.80;100.00;96803.75;4985472;28;20319;-76
2021/11/04 10:59:25;;;;;;;4.57;4.27;;;;;;;4.82;100.00;96809.66;4993457;28;20221;-75
2021/11/04 11:01:54;;;;;;;4.57;4.27;;;;;;;4.97;100.00;96809.06;4994156;28;20201;-78
2021/11/04 11:04:24;;;;;;;4.43;4.23;;;;;;;4.91;100.00;96813.97;4970932;28;20247;-75
2021/11/04 11:06:54;;;;;;;4.27;4.07;;;;;;;4.98;100.00;96823.84;4994305;28;20209;-76
2021/11/04 11:09:24;;;;;;;4.77;4.47;;;;;;;5.01;100.00;96816.47;4986576;28;20221;-75
2021/11/04 11:11:56;;;;;;;4.97;4.67;;;;;;;4.99;100.00;96818.44;4990063;28;20221;-78
2021/11/04 11:14:25;;;;;;;4.97;4.57;;;;;;;4.78;100.00;96822.25;4991703;28;20491;-75
2021/11/04 11:16:54;;;;;;;4.80;4.47;;;;;;;4.87;100.00;96819.66;5002029;28;20233;-78
2021/11/04 11:19:25;;;;;;;5.33;4.97;;;;;;;4.78;100.00;96826.72;4976326;28;20227;-74
2021/11/04 11:21:54;;;;;;;5.57;5.17;;;;;;;4.85;100.00;96825.09;4982629;28;20665;-77
2021/11/04 11:24:25;;;;;;;5.80;5.37;;;;;;;4.83;100.00;96829.69;4988597;28;20198;-75
2021/11/04 11:26:55;;;;;;;5.50;5.10;;;;;;;4.71;100.00;96834.38;4986191;28;20210;-77
2021/11/04 11:29:23;;;;;;;5.53;5.13;;;;;;;4.79;100.00;96838.84;4986022;28;20753;-75
2021/11/04 11:31:53;;;;;;;5.63;5.23;;;;;;;4.71;100.00;96833.53;4997683;28;20718;-77